createdAt,value
2023-04-07T00:00:06.151Z,25.38
2023-04-07T00:03:14.206Z,24.80
2023-04-07T00:06:16.733Z,26.77
2023-04-07T00:09:19.066Z,30.60
2023-04-07T00:12:21.772Z,27.35
2023-04-07T00:15:24.700Z,33.35
2023-04-07T00:18:27.391Z,26.05
2023-04-07T00:21:29.780Z,30.17
2023-04-07T00:24:34.717Z,29.42
2023-04-07T00:27:37.380Z,28.63
2023-04-07T00:30:39.722Z,28.77
2023-04-07T00:33:42.112Z,25.98
2023-04-07T00:36:44.488Z,27.35
2023-04-07T00:39:47.098Z,30.23
2023-04-07T00:42:49.507Z,26.58
2023-04-07T00:45:52.852Z,30.27
2023-04-07T00:48:55.264Z,34.25
2023-04-07T00:51:58.582Z,29.50
2023-04-07T00:55:01.399Z,33.80
2023-04-07T00:58:05.894Z,29.63
2023-04-07T01:01:19.220Z,33.40
2023-04-07T01:04:33.511Z,28.70
2023-04-07T01:07:57.836Z,35.10
2023-04-07T01:11:17.551Z,21.30
2023-04-07T01:14:20.421Z,32.83
2023-04-07T01:17:33.579Z,32.50
2023-04-07T01:20:36.922Z,35.20
2023-04-07T01:23:53.211Z,33.92
2023-04-07T01:27:00.064Z,32.33
2023-04-07T01:30:04.691Z,32.00
2023-04-07T01:33:07.899Z,34.90
2023-04-07T01:36:10.566Z,31.40
2023-04-07T01:39:14.062Z,40.10
2023-04-07T01:42:16.734Z,28.42
2023-04-07T01:45:19.445Z,35.00
2023-04-07T01:48:22.040Z,39.13
2023-04-07T01:51:24.762Z,40.15
2023-04-07T01:54:27.592Z,38.58
2023-04-07T01:57:30.138Z,38.67
2023-04-07T02:00:38.072Z,35.45
2023-04-07T02:04:13.731Z,44.35
2023-04-07T02:07:21.779Z,36.72
2023-04-07T02:10:28.280Z,39.47
2023-04-07T02:13:34.980Z,44.80
2023-04-07T02:16:38.021Z,37.85
2023-04-07T02:19:40.474Z,31.02
2023-04-07T02:22:44.811Z,44.75
2023-04-07T02:25:47.546Z,38.67
2023-04-07T02:28:49.911Z,46.35
2023-04-07T02:31:53.120Z,47.65
2023-04-07T02:34:55.713Z,42.67
2023-04-07T02:37:57.985Z,43.60
2023-04-07T02:41:00.454Z,45.92
2023-04-07T02:44:05.428Z,49.00
2023-04-07T02:47:07.842Z,53.63
2023-04-07T02:50:10.685Z,47.92
2023-04-07T02:53:13.060Z,44.10
2023-04-07T02:56:17.194Z,43.53
2023-04-07T03:02:22.010Z,44.83
2023-04-07T03:05:24.421Z,51.35
2023-04-07T03:08:27.633Z,45.80
2023-04-07T03:14:35.445Z,50.22
2023-04-07T03:17:37.974Z,40.08
2023-04-07T03:20:42.164Z,50.92
2023-04-07T03:23:46.813Z,37.65
2023-04-07T03:26:49.402Z,43.35
2023-04-07T03:29:58.229Z,46.33
2023-04-07T03:33:02.614Z,41.80
2023-04-07T03:36:06.706Z,58.70
2023-04-07T03:39:09.576Z,31.90
2023-04-07T03:42:11.904Z,58.47
2023-04-07T03:45:14.575Z,46.65
2023-04-07T03:48:21.897Z,48.75
2023-04-07T03:51:34.370Z,35.90
2023-04-07T03:54:39.265Z,34.47
2023-04-07T03:57:42.212Z,41.45
2023-04-07T04:00:45.287Z,40.03
2023-04-07T04:03:48.395Z,44.70
2023-04-07T04:06:58.928Z,37.20
2023-04-07T04:10:16.293Z,40.95
2023-04-07T04:13:23.315Z,38.97
2023-04-07T04:16:26.614Z,29.48
2023-04-07T04:19:32.449Z,46.72
2023-04-07T04:22:39.944Z,52.60
2023-04-07T04:25:42.704Z,53.85
2023-04-07T04:28:47.453Z,48.28
2023-04-07T04:31:51.786Z,46.88
2023-04-07T04:34:55.466Z,57.42
2023-04-07T04:37:58.591Z,51.70
2023-04-07T04:41:02.372Z,54.67
2023-04-07T04:44:07.161Z,51.63
2023-04-07T04:47:10.638Z,49.75
2023-04-07T04:50:15.439Z,50.42
2023-04-07T04:53:20.160Z,47.88
2023-04-07T04:56:33.060Z,55.17
2023-04-07T04:59:35.704Z,50.17
2023-04-07T05:05:44.144Z,51.80
2023-04-07T05:08:46.852Z,40.78
2023-04-07T05:11:50.974Z,45.95
2023-04-07T05:14:53.587Z,56.13
2023-04-07T05:17:56.451Z,56.15
2023-04-07T05:21:02.520Z,43.72
2023-04-07T05:24:08.743Z,50.13
2023-04-07T05:27:11.844Z,43.83
2023-04-07T05:30:15.654Z,41.67
2023-04-07T05:33:18.201Z,45.07
2023-04-07T05:36:25.198Z,43.50
2023-04-07T05:39:31.453Z,41.55
2023-04-07T05:42:34.477Z,32.27
2023-04-07T05:45:38.513Z,39.92
2023-04-07T05:48:42.158Z,35.63
2023-04-07T05:51:46.680Z,39.33
2023-04-07T05:54:50.330Z,39.40
2023-04-07T05:57:53.764Z,31.98
2023-04-07T06:00:58.339Z,45.33
2023-04-07T06:04:01.745Z,42.55
2023-04-07T06:07:05.033Z,45.33
2023-04-07T06:10:08.267Z,49.65
2023-04-07T06:13:11.242Z,51.25
2023-04-07T06:16:14.069Z,59.08
2023-04-07T06:19:16.707Z,84.93
2023-04-07T06:22:19.551Z,60.05
2023-04-07T06:25:22.323Z,61.83
2023-04-07T06:28:24.889Z,56.78
2023-04-07T06:31:27.609Z,52.67
2023-04-07T06:34:30.422Z,59.67
2023-04-07T06:37:32.854Z,46.97
2023-04-07T06:40:35.453Z,54.92
2023-04-07T06:43:38.247Z,49.55
2023-04-07T06:46:44.651Z,47.50
2023-04-07T06:49:47.092Z,51.22
2023-04-07T06:52:50.262Z,53.42
2023-04-07T06:55:52.883Z,42.30
2023-04-07T06:58:55.719Z,58.17
2023-04-07T07:01:58.393Z,63.13
2023-04-07T07:05:01.784Z,65.55
2023-04-07T07:08:04.296Z,56.47
2023-04-07T07:11:06.853Z,55.75
2023-04-07T07:14:09.229Z,48.42
2023-04-07T07:17:11.653Z,52.13
2023-04-07T07:20:14.115Z,49.75
2023-04-07T07:23:16.685Z,45.03
2023-04-07T07:26:19.123Z,45.72
2023-04-07T07:29:21.625Z,44.60
2023-04-07T07:32:24.172Z,47.70
2023-04-07T07:35:26.646Z,53.60
2023-04-07T07:38:29.064Z,43.97
2023-04-07T07:41:31.720Z,48.58
2023-04-07T07:44:34.115Z,58.17
2023-04-07T07:47:37.994Z,46.25
2023-04-07T07:50:40.815Z,42.85
2023-04-07T07:53:43.321Z,47.70
2023-04-07T07:56:45.983Z,49.30
2023-04-07T07:59:48.357Z,41.47
2023-04-07T08:02:50.797Z,43.08
2023-04-07T08:05:53.385Z,52.88
2023-04-07T08:08:56.133Z,49.90
2023-04-07T08:11:58.650Z,49.80
2023-04-07T08:15:01.450Z,52.33
2023-04-07T08:18:06.512Z,57.03
2023-04-07T08:21:09.267Z,46.35
2023-04-07T08:24:11.793Z,51.85
2023-04-07T08:27:14.529Z,47.00
2023-04-07T08:30:17.037Z,48.78
2023-04-07T08:33:19.481Z,51.88
2023-04-07T08:36:22.632Z,42.22
2023-04-07T08:39:25.674Z,37.23
2023-04-07T08:42:30.077Z,49.13
2023-04-07T08:45:32.946Z,46.10
2023-04-07T08:48:35.670Z,48.92
2023-04-07T08:51:39.882Z,50.70
2023-04-07T08:54:44.177Z,44.80
2023-04-07T09:00:50.301Z,55.08
2023-04-07T09:03:53.519Z,43.47
2023-04-07T09:06:56.137Z,38.53
2023-04-07T09:09:58.630Z,52.58
2023-04-07T09:13:01.275Z,47.80
2023-04-07T09:16:03.873Z,48.97
2023-04-07T09:19:07.370Z,52.00
2023-04-07T09:22:12.668Z,49.88
2023-04-07T09:25:29.953Z,44.55
2023-04-07T09:28:42.723Z,47.67
2023-04-07T09:31:47.157Z,45.63
2023-04-07T09:35:00.287Z,44.30
2023-04-07T09:38:07.154Z,60.33
2023-04-07T09:41:17.147Z,53.88
2023-04-07T09:44:23.909Z,49.63
2023-04-07T09:47:29.385Z,48.80
2023-04-07T09:50:41.461Z,47.70
2023-04-07T09:53:49.440Z,53.78
2023-04-07T09:56:52.248Z,63.22
2023-04-07T09:59:55.728Z,70.35
2023-04-07T10:02:59.145Z,48.38
2023-04-07T10:06:02.374Z,46.20
2023-04-07T10:09:04.980Z,58.60
2023-04-07T10:12:07.548Z,57.65
2023-04-07T10:15:15.856Z,58.20
2023-04-07T10:18:18.693Z,56.47
2023-04-07T10:21:21.279Z,52.95
2023-04-07T10:24:47.317Z,51.15
2023-04-07T10:27:53.736Z,64.80
2023-04-07T10:30:56.642Z,47.63
2023-04-07T10:33:59.218Z,48.55
2023-04-07T10:37:18.072Z,55.47
2023-04-07T10:40:21.729Z,45.78
2023-04-07T10:43:42.169Z,43.60
2023-04-07T10:46:48.473Z,56.78
2023-04-07T10:50:16.712Z,54.28
2023-04-07T10:53:19.188Z,62.85
2023-04-07T10:56:21.812Z,58.70
2023-04-07T10:59:28.059Z,51.42
2023-04-07T11:02:31.235Z,58.63
2023-04-07T11:05:33.828Z,42.40
2023-04-07T11:08:38.393Z,50.88
2023-04-07T11:11:42.581Z,51.47
2023-04-07T11:14:44.933Z,51.75
2023-04-07T11:17:47.454Z,50.65
2023-04-07T11:20:54.378Z,50.50
2023-04-07T11:23:56.847Z,49.80
2023-04-07T11:26:59.257Z,50.83
2023-04-07T11:30:02.170Z,47.15
2023-04-07T11:33:05.308Z,47.97
2023-04-07T11:36:08.182Z,47.63
2023-04-07T11:39:23.145Z,45.35
2023-04-07T11:42:36.313Z,43.53
2023-04-07T11:45:38.939Z,40.80
2023-04-07T11:48:42.891Z,38.22
2023-04-07T11:51:46.254Z,34.72
2023-04-07T11:54:52.119Z,41.47
2023-04-07T11:57:54.443Z,40.10
2023-04-07T12:00:58.777Z,40.78
2023-04-07T12:04:03.495Z,38.08
2023-04-07T12:07:10.622Z,43.90
2023-04-07T12:10:20.519Z,36.33
2023-04-07T12:13:23.314Z,38.72
2023-04-07T12:16:26.342Z,43.63
2023-04-07T12:19:29.578Z,38.90
2023-04-07T12:22:31.975Z,41.72
2023-04-07T12:25:34.489Z,37.72
2023-04-07T12:28:38.024Z,42.95
2023-04-07T12:31:40.720Z,43.08
2023-04-07T12:34:44.081Z,29.33
2023-04-07T12:37:49.524Z,38.95
2023-04-07T12:40:53.175Z,40.80
2023-04-07T12:43:55.770Z,35.00
2023-04-07T12:46:58.283Z,38.35
2023-04-07T12:50:01.410Z,35.63
2023-04-07T12:53:05.592Z,38.20
2023-04-07T12:59:10.570Z,41.33
2023-04-07T13:02:14.069Z,35.90
2023-04-07T13:05:16.840Z,28.13
2023-04-07T13:08:19.328Z,36.72
2023-04-07T13:11:22.071Z,43.50
2023-04-07T13:14:24.553Z,40.70
2023-04-07T13:17:27.185Z,35.20
2023-04-07T13:20:30.592Z,36.33
2023-04-07T13:23:42.049Z,39.90
2023-04-07T13:26:56.158Z,42.55
2023-04-07T13:29:58.612Z,39.78
2023-04-07T13:33:01.227Z,41.60
2023-04-07T13:36:03.878Z,38.17
2023-04-07T13:39:06.513Z,35.75
2023-04-07T13:42:12.521Z,35.67
2023-04-07T13:45:15.145Z,42.78
2023-04-07T13:48:17.488Z,35.47
2023-04-07T13:51:20.053Z,35.28
2023-04-07T13:54:22.781Z,35.67
2023-04-07T13:57:25.272Z,51.22
2023-04-07T14:00:27.754Z,39.25
2023-04-07T14:03:30.628Z,43.30
2023-04-07T14:06:33.258Z,33.60
2023-04-07T14:09:35.757Z,34.58
2023-04-07T14:12:38.351Z,36.42
2023-04-07T14:15:40.803Z,36.05
2023-04-07T14:18:43.381Z,30.50
2023-04-07T14:21:46.265Z,35.53
2023-04-07T14:24:48.761Z,32.28
2023-04-07T14:27:53.943Z,29.48
2023-04-07T14:30:56.382Z,31.77
2023-04-07T14:33:58.733Z,35.03
2023-04-07T14:37:01.577Z,33.47
2023-04-07T14:40:05.298Z,29.15
2023-04-07T14:43:08.177Z,29.02
2023-04-07T14:46:12.331Z,28.52
2023-04-07T14:49:15.755Z,26.70
2023-04-07T14:52:18.298Z,24.97
2023-04-07T14:55:21.126Z,26.08
2023-04-07T14:58:23.674Z,23.90
2023-04-07T15:01:26.223Z,23.58
2023-04-07T15:04:28.838Z,26.63
2023-04-07T15:07:31.379Z,28.08
2023-04-07T15:10:35.657Z,29.90
2023-04-07T15:13:37.998Z,26.55
2023-04-07T15:16:40.552Z,30.73
2023-04-07T15:19:44.342Z,26.30
2023-04-07T15:22:46.839Z,19.15
2023-04-07T15:25:51.552Z,25.92
2023-04-07T15:28:53.857Z,25.50
2023-04-07T15:31:56.540Z,25.90
2023-04-07T15:34:59.251Z,25.25
2023-04-07T15:38:01.927Z,27.05
2023-04-07T15:41:05.185Z,22.80
2023-04-07T15:44:10.957Z,19.38
2023-04-07T15:47:14.458Z,20.67
2023-04-07T15:50:16.929Z,22.67
2023-04-07T15:53:19.425Z,56.28
2023-04-07T15:56:24.828Z,31.25
2023-04-07T15:59:30.775Z,25.67
2023-04-07T16:02:33.484Z,31.45
2023-04-07T16:05:36.116Z,38.45
2023-04-07T16:08:38.516Z,33.15
2023-04-07T16:11:40.999Z,36.95
2023-04-07T16:14:43.440Z,34.30
2023-04-07T16:17:49.619Z,37.35
2023-04-07T16:20:52.552Z,37.47
2023-04-07T16:23:55.013Z,37.65
2023-04-07T16:26:57.420Z,35.90
2023-04-07T16:29:59.763Z,35.60
2023-04-07T16:33:02.232Z,38.92
2023-04-07T16:36:05.731Z,46.85
2023-04-07T16:39:08.823Z,30.15
2023-04-07T16:42:12.952Z,51.25
2023-04-07T16:45:19.093Z,39.30
2023-04-07T16:48:25.065Z,39.80
2023-04-07T16:51:29.688Z,46.35
2023-04-07T16:54:32.638Z,27.40
2023-04-07T16:57:36.043Z,39.58
2023-04-07T17:00:41.491Z,44.80
2023-04-07T17:03:52.095Z,211.35
2023-04-07T17:06:55.429Z,105.18
2023-04-07T17:09:58.483Z,44.83
2023-04-07T17:13:01.558Z,41.97
2023-04-07T17:16:05.159Z,48.00
2023-04-07T17:19:08.182Z,54.42
2023-04-07T17:22:11.889Z,47.05
2023-04-07T17:25:17.807Z,61.00
2023-04-07T17:28:21.660Z,45.13
2023-04-07T17:31:24.469Z,68.82
2023-04-07T17:34:26.909Z,76.78
2023-04-07T17:37:29.680Z,72.60
2023-04-07T17:40:33.398Z,76.05
2023-04-07T17:43:37.399Z,118.45
2023-04-07T17:49:44.964Z,61.63
2023-04-07T17:52:47.393Z,60.85
2023-04-07T17:55:50.121Z,54.92
2023-04-07T17:58:52.786Z,47.50
2023-04-07T18:01:55.317Z,67.88
2023-04-07T18:05:01.112Z,53.33
2023-04-07T18:08:03.576Z,48.35
2023-04-07T18:11:07.146Z,53.55
2023-04-07T18:14:09.662Z,45.85
2023-04-07T18:17:12.091Z,53.25
2023-04-07T18:20:16.108Z,54.42
2023-04-07T18:23:18.800Z,53.20
2023-04-07T18:26:21.869Z,53.97
2023-04-07T18:29:24.400Z,59.50
2023-04-07T18:32:26.862Z,52.55
2023-04-07T18:35:29.579Z,48.30
2023-04-07T18:38:32.207Z,54.70
2023-04-07T18:41:35.017Z,49.95
2023-04-07T18:44:37.600Z,51.05
2023-04-07T18:47:40.107Z,58.25
2023-04-07T18:50:42.842Z,52.05
2023-04-07T18:53:45.486Z,49.10
2023-04-07T18:56:48.663Z,57.33
2023-04-07T18:59:52.968Z,55.27
2023-04-07T19:05:59.030Z,47.10
2023-04-07T19:09:01.472Z,50.93
2023-04-07T19:12:04.379Z,54.35
2023-04-07T19:15:07.539Z,50.90
2023-04-07T19:18:09.917Z,52.15
2023-04-07T19:21:13.660Z,55.47
2023-04-07T19:24:16.121Z,51.88
2023-04-07T19:27:18.483Z,68.32
2023-04-07T19:30:21.044Z,56.67
2023-04-07T19:33:23.420Z,63.28
2023-04-07T19:36:26.601Z,65.32
2023-04-07T19:39:29.241Z,61.22
2023-04-07T19:42:32.176Z,56.08
2023-04-07T19:45:34.679Z,58.80
2023-04-07T19:48:37.247Z,53.80
2023-04-07T19:51:40.025Z,63.30
2023-04-07T19:54:42.840Z,70.97
2023-04-07T19:57:45.504Z,70.78
2023-04-07T20:00:50.985Z,63.13
2023-04-07T20:03:53.708Z,57.17
2023-04-07T20:06:56.314Z,59.65
2023-04-07T20:09:59.060Z,62.97
2023-04-07T20:13:01.400Z,64.55
2023-04-07T20:16:04.127Z,70.78
2023-04-07T20:19:06.440Z,65.45
2023-04-07T20:22:09.322Z,59.75
2023-04-07T20:25:11.817Z,83.40
2023-04-07T20:28:14.355Z,57.80
2023-04-07T20:31:16.845Z,62.72
2023-04-07T20:34:19.266Z,90.18
2023-04-07T20:37:22.776Z,57.05
2023-04-07T20:40:25.092Z,63.85
2023-04-07T20:43:28.164Z,61.17
2023-04-07T20:46:30.981Z,61.00
2023-04-07T20:49:33.949Z,59.50
2023-04-07T20:52:40.141Z,70.97
2023-04-07T20:55:42.609Z,61.53
2023-04-07T20:58:44.920Z,70.47
2023-04-07T21:01:47.414Z,63.95
2023-04-07T21:04:49.793Z,72.75
2023-04-07T21:07:52.047Z,93.85
2023-04-07T21:10:54.735Z,61.60
2023-04-07T21:13:57.408Z,96.88
2023-04-07T21:17:00.153Z,63.55
2023-04-07T21:20:03.135Z,74.05
2023-04-07T21:23:07.807Z,75.05
2023-04-07T21:26:10.388Z,75.95
2023-04-07T21:29:12.770Z,90.93
2023-04-07T21:32:15.534Z,71.68
2023-04-07T21:35:19.838Z,55.50
2023-04-07T21:38:22.487Z,71.03
2023-04-07T21:41:24.846Z,66.82
2023-04-07T21:44:27.500Z,67.30
2023-04-07T21:47:29.926Z,68.38
2023-04-07T21:50:32.392Z,81.50
2023-04-07T21:53:37.834Z,80.05
2023-04-07T21:56:40.594Z,78.47
2023-04-07T21:59:43.046Z,82.35
2023-04-07T22:02:45.905Z,74.80
2023-04-07T22:05:48.549Z,73.88
2023-04-07T22:09:00.632Z,61.25
2023-04-07T22:12:03.950Z,70.68
2023-04-07T22:15:07.165Z,59.45
2023-04-07T22:18:10.015Z,64.93
2023-04-07T22:21:12.923Z,52.20
2023-04-07T22:24:15.727Z,66.03
2023-04-07T22:27:18.121Z,70.97
2023-04-07T22:30:21.543Z,53.05
2023-04-07T22:33:23.917Z,76.18
2023-04-07T22:36:26.970Z,56.28
2023-04-07T22:39:29.779Z,43.10
2023-04-07T22:42:32.458Z,52.25
2023-04-07T22:45:35.720Z,77.40
2023-04-07T22:48:38.108Z,44.03
2023-04-07T22:51:41.219Z,59.35
2023-04-07T22:54:43.872Z,56.08
2023-04-07T22:57:46.527Z,51.17
2023-04-07T23:00:48.964Z,122.00
2023-04-07T23:03:51.522Z,87.32
2023-04-07T23:06:54.040Z,80.25
2023-04-07T23:09:56.770Z,62.85
2023-04-07T23:12:59.214Z,69.82
2023-04-07T23:16:03.980Z,91.63
2023-04-07T23:19:06.999Z,100.25
2023-04-07T23:22:09.558Z,56.95
2023-04-07T23:25:12.054Z,54.67
2023-04-07T23:28:14.717Z,41.47
2023-04-07T23:31:17.596Z,70.63
2023-04-07T23:34:19.962Z,61.58
2023-04-07T23:37:22.617Z,51.05
2023-04-07T23:40:25.033Z,71.93
2023-04-07T23:43:27.493Z,61.35
2023-04-07T23:46:30.077Z,49.67
2023-04-07T23:49:32.894Z,42.53
2023-04-07T23:52:35.863Z,45.47
2023-04-07T23:55:38.250Z,52.22
2023-04-07T23:58:40.976Z,32.55
